Flight Track Log - Related Links

Times and Time Zones

All times are in EDT time to prevent confusion due to time zone crossing. See the CTL15 flight status page for this flight to view local times or setup timezone preferences in your user account.

Time Position Orientation Groundspeed Altitude Reporting Facility
EDT Latitude Longitude Course Direction KTS MPH feet Rate Location/Type
Wed 07:45:42 PM 39.6369 -84.1600 43° Northeast 135 155 2,600  Level Indianapolis Center
Wed 07:46:49 PM 39.6661 -84.1242 43° Northeast 133 153 3,500 844 Climbing Indianapolis Center
Wed 07:47:50 PM 39.6931 -84.0881 46° Northeast 130 150 4,400 793 Climbing Indianapolis Center
Wed 07:48:50 PM 39.7197 -84.0547 44° Northeast 134 154 5,100 695 Climbing Indianapolis Center
Wed 07:49:25 PM 39.7347 -84.0356 44° Northeast 154 177 5,500 680 Climbing Indianapolis Center
Wed 07:50:27 PM 39.7617 -84.0028 43° Northeast 133 153 6,200 677 Climbing Indianapolis Center
Wed 07:51:29 PM 39.7861 -83.9653 50° Northeast 134 154 6,900 339 Climbing Indianapolis Center
Wed 07:52:31 PM 39.8144 -83.9256 47° Northeast 141 162 6,900 98 Level Indianapolis Center
Wed 07:53:32 PM 39.8489 -83.8819 44° Northeast 157 181 7,100 49 Climbing Indianapolis Center
Wed 07:54:34 PM 39.8828 -83.8381 45° Northeast 167 192 7,000 -97 Descending Indianapolis Center
Wed 07:55:36 PM 39.9167 -83.7922 46° Northeast 171 197 6,900  Descending Indianapolis Center
Wed 07:56:38 PM 39.9575 -83.7433 43° Northeast 170 196 7,000 48 Climbing Indianapolis Center
Wed 07:57:40 PM 39.9914 -83.6989 45° Northeast 170 196 7,000  Level Indianapolis Center
Wed 07:58:41 PM 40.0244 -83.6531 47° Northeast 170 196 7,000  Level Indianapolis Center
Wed 07:59:53 PM 40.0633 -83.5981 47° Northeast 170 196 7,000  Level Indianapolis Center
Wed 08:00:45 PM 40.0931 -83.5594 45° Northeast 171 197 7,000 -53 Level Indianapolis Center
Wed 08:01:47 PM 40.1242 -83.5167 46° Northeast 171 197 6,900 -48 Descending Indianapolis Center
Wed 08:02:49 PM 40.1553 -83.4692 49° Northeast 170 196 6,900  Level Indianapolis Center
Wed 08:03:52 PM 40.1906 -83.4278 42° Northeast 169 194 6,900  Level Indianapolis Center
Wed 08:04:53 PM 40.2211 -83.3811 49° Northeast 168 193 6,900  Level Indianapolis Center
Wed 08:05:52 PM 40.2594 -83.3353 42° Northeast 169 194 6,900 -50 Level Indianapolis Center
Wed 08:06:53 PM 40.2933 -83.2914 45° Northeast 170 196 6,800 48 Descending Indianapolis Center
Wed 08:07:58 PM 40.3317 -83.2453 43° Northeast 171 197 7,000 94 Climbing Indianapolis Center
Wed 08:09:00 PM 40.3681 -83.1986 44° Northeast 172 198 7,000 -97 Level Indianapolis Center
Wed 08:10:02 PM 40.3983 -83.1500 51° Northeast 171 197 6,800 -48 Descending Indianapolis Center
Wed 08:11:04 PM 40.4322 -83.1075 44° Northeast 169 194 6,900 49 Climbing Indianapolis Center
Wed 08:12:05 PM 40.4656 -83.0678 42° Northeast 168 193 6,900  Level Indianapolis Center
Wed 08:13:07 PM 40.4994 -83.0228 45° Northeast 170 196 6,900  Level Indianapolis Center
Wed 08:14:09 PM 40.5353 -82.9775 44° Northeast 169 194 6,900 -48 Level Indianapolis Center
Wed 08:15:11 PM 40.5647 -82.9283 52° Northeast 169 194 6,800  Descending Indianapolis Center
Wed 08:16:13 PM 40.6003 -82.8875 41° Northeast 168 193 6,900 49 Climbing Indianapolis Center
Wed 08:17:14 PM 40.6311 -82.8431 48° Northeast 165 190 6,900  Level Indianapolis Center
Wed 08:18:16 PM 40.6714 -82.7939 43° Northeast 166 191 6,900  Level Indianapolis Center
Wed 08:19:18 PM 40.7025 -82.7467 49° Northeast 168 193 6,900 -48 Level Indianapolis Center
Wed 08:20:20 PM 40.7358 -82.7033 45° Northeast 168 193 6,800 -97 Descending Indianapolis Center

Login

Don't have an account? Register now (free) for customized features, flight alerts, and more!